createdAt,value
2022-09-17T00:01:23.125Z,15.36
2022-09-17T00:03:56.474Z,15.34
2022-09-17T00:06:25.133Z,15.33
2022-09-17T00:08:52.436Z,15.31
2022-09-17T00:11:30.679Z,15.30
2022-09-17T00:13:59.903Z,15.30
2022-09-17T00:16:39.059Z,15.28
2022-09-17T00:19:10.107Z,15.29
2022-09-17T00:21:36.789Z,15.29
2022-09-17T00:24:06.240Z,15.30
2022-09-17T00:26:33.896Z,15.29
2022-09-17T00:29:01.514Z,15.26
2022-09-17T00:31:29.531Z,15.26
2022-09-17T00:33:56.829Z,15.29
2022-09-17T00:36:23.775Z,15.29
2022-09-17T00:38:55.421Z,15.29
2022-09-17T00:41:24.094Z,15.30
2022-09-17T00:43:57.942Z,15.30
2022-09-17T00:46:33.690Z,15.31
2022-09-17T00:49:04.246Z,15.31
2022-09-17T00:51:37.491Z,15.32
2022-09-17T00:54:10.466Z,15.32
2022-09-17T00:56:39.581Z,15.33
2022-09-17T00:59:06.256Z,15.31
2022-09-17T01:01:33.204Z,15.31
2022-09-17T01:04:00.732Z,15.31
2022-09-17T01:07:02.846Z,15.32
2022-09-17T01:09:41.175Z,15.33
2022-09-17T01:12:29.498Z,15.35
2022-09-17T01:15:26.009Z,15.31
2022-09-17T01:18:06.759Z,15.26
2022-09-17T01:20:42.443Z,15.23
2022-09-17T01:23:41.575Z,15.20
2022-09-17T01:26:29.709Z,15.18
2022-09-17T01:29:12.531Z,15.18
2022-09-17T01:31:54.287Z,15.17
2022-09-17T01:35:01.703Z,15.15
2022-09-17T01:37:41.768Z,15.16
2022-09-17T01:40:15.520Z,15.15
2022-09-17T01:42:52.725Z,15.16
2022-09-17T01:45:30.762Z,15.14
2022-09-17T01:48:05.133Z,15.13
2022-09-17T01:50:42.568Z,15.11
2022-09-17T01:53:10.673Z,15.12
2022-09-17T01:55:40.521Z,15.12
2022-09-17T01:58:45.998Z,15.09
2022-09-17T02:01:17.344Z,15.10
2022-09-17T02:03:56.803Z,15.11
2022-09-17T02:06:29.932Z,15.10
2022-09-17T02:09:21.649Z,15.08
2022-09-17T02:11:55.607Z,15.07
2022-09-17T02:14:28.767Z,15.05
2022-09-17T02:17:06.829Z,15.04
2022-09-17T02:19:38.527Z,15.04
2022-09-17T02:22:30.385Z,15.01
2022-09-17T02:25:06.582Z,15.00
2022-09-17T02:27:47.971Z,15.01
2022-09-17T02:30:15.185Z,15.03
2022-09-17T02:32:42.574Z,15.06
2022-09-17T02:35:10.970Z,15.05
2022-09-17T02:37:37.590Z,15.05
2022-09-17T02:40:05.276Z,15.06
2022-09-17T02:42:51.990Z,15.07
2022-09-17T02:45:27.685Z,15.09
2022-09-17T02:48:32.502Z,15.08
2022-09-17T02:51:14.046Z,15.07
2022-09-17T02:53:56.735Z,15.09
2022-09-17T02:56:55.532Z,15.10
2022-09-17T02:59:28.821Z,15.12
2022-09-17T03:02:03.261Z,15.11
2022-09-17T03:04:31.809Z,15.09
2022-09-17T03:06:59.530Z,15.08
2022-09-17T03:09:26.515Z,15.07
2022-09-17T03:11:52.995Z,15.05
2022-09-17T03:14:20.786Z,15.02
2022-09-17T03:16:48.052Z,15.00
2022-09-17T03:19:14.520Z,14.99
2022-09-17T03:21:40.990Z,15.00
2022-09-17T03:24:11.688Z,15.00
2022-09-17T03:26:39.357Z,14.98
2022-09-17T03:29:05.986Z,14.97
2022-09-17T03:31:32.646Z,14.97
2022-09-17T03:34:00.667Z,14.97
2022-09-17T03:36:27.297Z,14.99
2022-09-17T03:38:55.830Z,15.00
2022-09-17T03:41:22.823Z,14.99
2022-09-17T03:43:51.283Z,14.99
2022-09-17T03:46:18.533Z,15.00
2022-09-17T03:48:45.253Z,14.99
2022-09-17T03:51:12.237Z,14.98
2022-09-17T03:53:39.545Z,15.00
2022-09-17T03:56:06.951Z,15.00
2022-09-17T03:58:33.961Z,15.03
2022-09-17T04:01:00.633Z,15.03
2022-09-17T04:03:32.129Z,15.07
2022-09-17T04:05:58.734Z,15.08
2022-09-17T04:08:25.287Z,15.10
2022-09-17T04:10:51.934Z,15.13
2022-09-17T04:13:18.835Z,15.13
2022-09-17T04:15:45.995Z,15.15
2022-09-17T04:18:13.758Z,15.14
2022-09-17T04:20:40.367Z,15.13
2022-09-17T04:23:07.339Z,15.13
2022-09-17T04:25:34.054Z,15.13
2022-09-17T04:28:00.572Z,15.13
2022-09-17T04:30:27.081Z,15.13
2022-09-17T04:32:53.836Z,15.15
2022-09-17T04:35:21.566Z,15.15
2022-09-17T04:37:55.342Z,15.15
2022-09-17T04:40:23.174Z,15.13
2022-09-17T04:42:53.734Z,15.12
2022-09-17T04:45:20.650Z,15.09
2022-09-17T04:47:47.112Z,15.08
2022-09-17T04:50:13.565Z,15.05
2022-09-17T04:52:44.163Z,15.03
2022-09-17T04:55:12.536Z,14.99
2022-09-17T04:57:39.281Z,14.94
2022-09-17T05:00:09.970Z,14.90
2022-09-17T05:02:36.405Z,14.86
2022-09-17T05:05:03.771Z,14.83
2022-09-17T05:07:30.234Z,14.79
2022-09-17T05:09:56.702Z,14.76
2022-09-17T05:12:23.231Z,14.74
2022-09-17T05:14:50.545Z,14.75
2022-09-17T05:17:17.206Z,14.71
2022-09-17T05:19:43.672Z,14.70
2022-09-17T05:22:10.208Z,14.70
2022-09-17T05:24:39.680Z,14.71
2022-09-17T05:27:07.182Z,14.71
2022-09-17T05:29:33.709Z,14.70
2022-09-17T05:32:00.430Z,14.67
2022-09-17T05:34:26.950Z,14.66
2022-09-17T05:36:53.519Z,14.65
2022-09-17T05:39:22.583Z,14.66
2022-09-17T05:41:49.123Z,14.66
2022-09-17T05:44:18.201Z,14.66
2022-09-17T05:46:46.029Z,14.67
2022-09-17T05:49:14.222Z,14.68
2022-09-17T05:51:41.761Z,14.68
2022-09-17T05:54:12.524Z,14.67
2022-09-17T05:56:38.944Z,14.67
2022-09-17T05:59:05.491Z,14.67
2022-09-17T06:01:32.126Z,14.66
2022-09-17T06:04:03.066Z,14.67
2022-09-17T06:06:30.852Z,14.67
2022-09-17T06:09:00.724Z,14.68
2022-09-17T06:11:27.207Z,14.71
2022-09-17T06:13:58.240Z,14.72
2022-09-17T06:16:25.030Z,14.77
2022-09-17T06:18:53.010Z,14.80
2022-09-17T06:21:21.718Z,14.84
2022-09-17T06:23:52.743Z,14.89
2022-09-17T06:26:19.269Z,14.91
2022-09-17T06:28:45.743Z,14.97
2022-09-17T06:31:13.479Z,15.00
2022-09-17T06:33:41.483Z,15.03
2022-09-17T06:36:14.144Z,15.07
2022-09-17T06:38:41.956Z,15.14
2022-09-17T06:41:09.015Z,15.21
2022-09-17T06:43:36.523Z,15.28
2022-09-17T06:46:09.226Z,15.34
2022-09-17T06:48:37.613Z,15.39
2022-09-17T06:51:06.476Z,15.46
2022-09-17T06:53:38.576Z,15.52
2022-09-17T06:56:07.093Z,15.58
2022-09-17T06:58:37.162Z,15.65
2022-09-17T07:01:04.815Z,15.73
2022-09-17T07:03:43.339Z,15.81
2022-09-17T07:06:10.701Z,15.89
2022-09-17T07:08:38.073Z,15.98
2022-09-17T07:11:04.908Z,16.05
2022-09-17T07:13:34.593Z,16.14
2022-09-17T07:16:02.959Z,16.25
2022-09-17T07:18:30.184Z,16.39
2022-09-17T07:20:59.395Z,16.53
2022-09-17T07:23:35.772Z,16.69
2022-09-17T07:26:08.802Z,16.88
2022-09-17T07:28:35.328Z,17.04
2022-09-17T07:31:05.646Z,17.17
2022-09-17T07:33:37.565Z,17.29
2022-09-17T07:36:07.398Z,17.40
2022-09-17T07:38:35.098Z,17.48
2022-09-17T07:41:04.666Z,17.60
2022-09-17T07:43:35.652Z,17.70
2022-09-17T07:46:04.409Z,17.83
2022-09-17T07:48:31.278Z,17.93
2022-09-17T07:50:58.165Z,17.99
2022-09-17T07:53:31.577Z,18.05
2022-09-17T07:56:00.620Z,18.09
2022-09-17T07:58:32.161Z,18.13
2022-09-17T08:01:08.622Z,18.17
2022-09-17T08:03:39.974Z,18.21
2022-09-17T08:06:15.243Z,18.28
2022-09-17T08:08:42.235Z,18.37
2022-09-17T08:11:10.157Z,18.45
2022-09-17T08:13:40.853Z,18.50
2022-09-17T08:16:10.022Z,18.52
2022-09-17T08:18:36.743Z,18.54
2022-09-17T08:21:06.123Z,18.52
2022-09-17T08:23:36.399Z,18.54
2022-09-17T08:26:04.038Z,18.58
2022-09-17T08:28:31.574Z,18.64
2022-09-17T08:31:03.006Z,18.71
2022-09-17T08:33:35.074Z,18.81
2022-09-17T08:36:01.872Z,18.84
2022-09-17T08:38:32.549Z,18.82
2022-09-17T08:41:22.501Z,18.78
2022-09-17T08:44:13.878Z,18.82
2022-09-17T08:46:50.804Z,18.89
2022-09-17T08:49:39.891Z,18.96
2022-09-17T08:52:06.314Z,19.05
2022-09-17T08:54:57.033Z,19.13
2022-09-17T08:57:50.283Z,19.19
2022-09-17T09:00:21.649Z,19.22
2022-09-17T09:03:11.514Z,19.32
2022-09-17T09:05:50.213Z,19.42
2022-09-17T09:08:28.805Z,19.51
2022-09-17T09:11:02.086Z,19.55
2022-09-17T09:13:39.153Z,19.56
2022-09-17T09:16:15.561Z,19.62
2022-09-17T09:18:42.342Z,19.73
2022-09-17T09:21:27.758Z,19.82
2022-09-17T09:24:05.272Z,19.87
2022-09-17T09:26:45.247Z,19.86
2022-09-17T09:29:30.003Z,19.85
2022-09-17T09:32:21.616Z,19.81
2022-09-17T09:34:54.895Z,19.79
2022-09-17T09:37:33.642Z,19.75
2022-09-17T09:40:13.866Z,19.75
2022-09-17T09:42:40.406Z,19.76
2022-09-17T09:45:17.806Z,19.77
2022-09-17T09:48:06.202Z,19.76
2022-09-17T09:51:05.696Z,19.72
2022-09-17T09:54:12.384Z,19.55
2022-09-17T09:56:55.010Z,19.28
2022-09-17T09:59:21.505Z,19.05
2022-09-17T10:01:48.193Z,18.82
2022-09-17T10:04:23.198Z,18.60
2022-09-17T10:06:52.965Z,18.40
2022-09-17T10:09:22.241Z,18.32
2022-09-17T10:12:13.530Z,18.33
2022-09-17T10:14:46.151Z,18.43
2022-09-17T10:17:26.171Z,18.56
2022-09-17T10:20:01.801Z,18.73
2022-09-17T10:22:36.882Z,18.90
2022-09-17T10:25:20.131Z,19.05
2022-09-17T10:27:48.311Z,19.24
2022-09-17T10:30:17.583Z,19.41
2022-09-17T10:32:44.571Z,19.52
2022-09-17T10:35:18.274Z,19.63
2022-09-17T10:37:49.938Z,19.76
2022-09-17T10:40:19.521Z,19.90
2022-09-17T10:42:51.124Z,20.05
2022-09-17T10:45:29.842Z,20.19
2022-09-17T10:47:59.054Z,20.34
2022-09-17T10:50:34.476Z,20.48
2022-09-17T10:53:05.960Z,20.63
2022-09-17T10:55:39.922Z,20.76
2022-09-17T10:58:07.177Z,20.83
2022-09-17T11:00:44.068Z,20.94
2022-09-17T11:03:53.071Z,21.08
2022-09-17T11:06:57.246Z,21.18
2022-09-17T11:09:23.682Z,21.22
2022-09-17T11:11:50.284Z,21.21
2022-09-17T11:14:31.199Z,21.17
2022-09-17T11:17:16.034Z,21.18
2022-09-17T11:20:01.786Z,21.22
2022-09-17T11:22:46.585Z,21.27
2022-09-17T11:25:59.728Z,21.27
2022-09-17T11:28:57.609Z,21.22
2022-09-17T11:31:52.115Z,21.09
2022-09-17T11:34:42.698Z,20.79
2022-09-17T11:37:09.102Z,20.59
2022-09-17T11:39:49.293Z,20.39
2022-09-17T11:42:23.879Z,20.19
2022-09-17T11:45:19.762Z,20.06
2022-09-17T11:47:56.388Z,20.10
2022-09-17T11:50:29.778Z,20.22
2022-09-17T11:53:15.189Z,20.40
2022-09-17T11:55:53.639Z,20.59
2022-09-17T11:58:42.553Z,20.74
2022-09-17T12:01:34.262Z,20.94
2022-09-17T12:04:27.177Z,21.11
2022-09-17T12:07:31.326Z,21.22
2022-09-17T12:10:19.234Z,21.34
2022-09-17T12:13:07.358Z,21.43
2022-09-17T12:15:38.506Z,21.54
2022-09-17T12:18:32.385Z,21.57
2022-09-17T12:21:02.675Z,21.52
2022-09-17T12:23:41.829Z,21.50
2022-09-17T12:26:22.688Z,21.53
2022-09-17T12:29:03.479Z,21.60
2022-09-17T12:31:46.086Z,21.60
2022-09-17T12:34:34.745Z,21.52
2022-09-17T12:37:08.180Z,21.47
2022-09-17T12:40:05.611Z,21.41
2022-09-17T12:42:54.494Z,21.34
2022-09-17T12:46:07.166Z,21.18
2022-09-17T12:48:45.506Z,21.07
2022-09-17T12:51:12.147Z,21.00
2022-09-17T12:53:52.938Z,20.97
2022-09-17T12:57:00.461Z,20.98
2022-09-17T12:59:32.535Z,21.01
2022-09-17T13:02:18.709Z,21.05
2022-09-17T13:05:01.099Z,21.09
2022-09-17T13:07:37.149Z,21.19
2022-09-17T13:10:09.716Z,21.22
2022-09-17T13:12:49.061Z,21.22
2022-09-17T13:15:17.392Z,21.12
2022-09-17T13:18:12.458Z,21.01
2022-09-17T13:20:44.231Z,20.92
2022-09-17T13:23:12.704Z,20.85
2022-09-17T13:25:55.068Z,20.74
2022-09-17T13:28:21.623Z,20.62
2022-09-17T13:31:06.191Z,20.51
2022-09-17T13:33:57.025Z,20.40
2022-09-17T13:36:43.168Z,20.41
2022-09-17T13:39:44.241Z,20.48
2022-09-17T13:42:14.392Z,20.56
2022-09-17T13:45:02.072Z,20.67
2022-09-17T13:47:31.278Z,20.82
2022-09-17T13:50:05.801Z,20.88
2022-09-17T13:52:36.032Z,20.92
2022-09-17T13:55:03.561Z,20.91
2022-09-17T13:57:33.465Z,20.88
2022-09-17T14:00:01.351Z,20.92
2022-09-17T14:02:31.791Z,21.01
2022-09-17T14:05:25.862Z,21.08
2022-09-17T14:08:05.807Z,21.22
2022-09-17T14:10:42.086Z,21.40
2022-09-17T14:13:46.048Z,21.52
2022-09-17T14:16:46.341Z,21.71
2022-09-17T14:19:15.533Z,21.86
2022-09-17T14:21:57.180Z,21.93
2022-09-17T14:24:30.127Z,21.91
2022-09-17T14:27:15.362Z,21.83
2022-09-17T14:29:58.164Z,21.71
2022-09-17T14:32:30.026Z,21.52
2022-09-17T14:35:03.890Z,21.39
2022-09-17T14:37:30.578Z,21.31
2022-09-17T14:39:57.054Z,21.19
2022-09-17T14:42:35.635Z,21.09
2022-09-17T14:45:13.993Z,20.99
2022-09-17T14:47:40.503Z,20.87
2022-09-17T14:50:21.025Z,20.74
2022-09-17T14:52:49.809Z,20.64
2022-09-17T14:55:31.061Z,20.56
2022-09-17T14:58:04.833Z,20.47
2022-09-17T15:00:35.144Z,20.40
2022-09-17T15:03:01.868Z,20.36
2022-09-17T15:05:38.983Z,20.34
2022-09-17T15:08:11.427Z,20.28
2022-09-17T15:10:46.981Z,20.24
2022-09-17T15:13:20.894Z,20.15
2022-09-17T15:16:14.355Z,20.04
2022-09-17T15:18:47.167Z,19.95
2022-09-17T15:21:40.112Z,19.86
2022-09-17T15:24:34.996Z,19.77
2022-09-17T15:27:12.541Z,19.73
2022-09-17T15:29:43.810Z,19.72
2022-09-17T15:32:12.966Z,19.67
2022-09-17T15:34:40.887Z,19.66
2022-09-17T15:37:16.403Z,19.62
2022-09-17T15:39:50.690Z,19.60
2022-09-17T15:42:29.977Z,19.60
2022-09-17T15:45:22.023Z,19.59
2022-09-17T15:47:53.110Z,19.60
2022-09-17T15:50:24.317Z,19.58
2022-09-17T15:52:59.201Z,19.57
2022-09-17T15:55:36.714Z,19.54
2022-09-17T15:58:21.553Z,19.55
2022-09-17T16:00:52.384Z,19.54
2022-09-17T16:03:44.611Z,19.49
2022-09-17T16:06:20.690Z,19.46
2022-09-17T16:08:57.704Z,19.43
2022-09-17T16:11:29.373Z,19.38
2022-09-17T16:13:58.416Z,19.39
2022-09-17T16:16:38.101Z,19.37
2022-09-17T16:19:06.686Z,19.35
2022-09-17T16:21:33.305Z,19.33
2022-09-17T16:24:00.132Z,19.31
2022-09-17T16:26:31.747Z,19.30
2022-09-17T16:29:16.209Z,19.31
2022-09-17T16:31:44.611Z,19.33
2022-09-17T16:34:12.162Z,19.33
2022-09-17T16:36:39.302Z,19.30
2022-09-17T16:39:05.789Z,19.30
2022-09-17T16:41:32.283Z,19.31
2022-09-17T16:44:03.193Z,19.31
2022-09-17T16:46:29.702Z,19.32
2022-09-17T16:48:57.252Z,19.31
2022-09-17T16:51:23.693Z,19.31
2022-09-17T16:53:53.828Z,19.30
2022-09-17T16:56:20.334Z,19.28
2022-09-17T16:58:46.769Z,19.25
2022-09-17T17:01:15.515Z,19.21
2022-09-17T17:03:48.916Z,19.20
2022-09-17T17:06:17.406Z,19.19
2022-09-17T17:08:44.003Z,19.17
2022-09-17T17:11:10.507Z,19.12
2022-09-17T17:13:38.181Z,19.07
2022-09-17T17:16:09.207Z,19.01
2022-09-17T17:18:35.939Z,18.94
2022-09-17T17:21:11.526Z,18.89
2022-09-17T17:23:47.795Z,18.87
2022-09-17T17:26:17.419Z,18.86
2022-09-17T17:28:44.093Z,18.81
2022-09-17T17:31:11.562Z,18.78
2022-09-17T17:33:42.450Z,18.73
2022-09-17T17:36:10.534Z,18.65
2022-09-17T17:38:37.324Z,18.59
2022-09-17T17:41:09.578Z,18.51
2022-09-17T17:43:41.165Z,18.40
2022-09-17T17:46:10.185Z,18.29
2022-09-17T17:48:37.471Z,18.17
2022-09-17T17:51:06.491Z,18.07
2022-09-17T17:53:36.804Z,17.97
2022-09-17T17:56:06.696Z,17.89
2022-09-17T17:58:34.108Z,17.77
2022-09-17T18:01:08.671Z,17.70
2022-09-17T18:03:39.207Z,17.64
2022-09-17T18:06:06.804Z,17.57
2022-09-17T18:08:36.578Z,17.48
2022-09-17T18:11:04.154Z,17.42
2022-09-17T18:13:32.042Z,17.37
2022-09-17T18:16:01.107Z,17.33
2022-09-17T18:18:37.287Z,17.26
2022-09-17T18:21:08.933Z,17.21
2022-09-17T18:23:39.154Z,17.18
2022-09-17T18:26:07.568Z,17.13
2022-09-17T18:28:35.534Z,17.09
2022-09-17T18:31:06.978Z,17.05
2022-09-17T18:33:38.077Z,17.00
2022-09-17T18:36:05.751Z,16.95
2022-09-17T18:38:33.109Z,16.92
2022-09-17T18:41:04.753Z,16.87
2022-09-17T18:43:36.176Z,16.83
2022-09-17T18:46:04.036Z,16.77
2022-09-17T18:48:35.725Z,16.77
2022-09-17T18:51:11.082Z,16.77
2022-09-17T18:53:41.952Z,16.77
2022-09-17T18:56:16.179Z,16.77
2022-09-17T18:58:45.379Z,16.75
2022-09-17T19:01:11.964Z,16.73
2022-09-17T19:03:43.221Z,16.68
2022-09-17T19:06:11.565Z,16.68
2022-09-17T19:08:38.833Z,16.66
2022-09-17T19:11:05.510Z,16.63
2022-09-17T19:13:41.876Z,16.60
2022-09-17T19:16:10.292Z,16.57
2022-09-17T19:18:37.437Z,16.55
2022-09-17T19:21:08.909Z,16.55
2022-09-17T19:23:43.138Z,16.56
2022-09-17T19:26:11.775Z,16.56
2022-09-17T19:28:38.357Z,16.58
2022-09-17T19:31:10.613Z,16.59
2022-09-17T19:33:40.478Z,16.62
2022-09-17T19:36:10.762Z,16.61
2022-09-17T19:38:37.854Z,16.59
2022-09-17T19:41:06.973Z,16.60
2022-09-17T19:43:38.637Z,16.59
2022-09-17T19:46:07.886Z,16.56
2022-09-17T19:48:37.947Z,16.53
2022-09-17T19:51:05.440Z,16.54
2022-09-17T19:53:35.796Z,16.51
2022-09-17T19:56:02.534Z,16.51
2022-09-17T19:58:29.026Z,16.49
2022-09-17T20:00:57.004Z,16.48
2022-09-17T20:03:23.946Z,16.46
2022-09-17T20:05:59.578Z,16.45
2022-09-17T20:08:26.608Z,16.47
2022-09-17T20:10:54.431Z,16.48
2022-09-17T20:13:22.369Z,16.52
2022-09-17T20:15:49.114Z,16.56
2022-09-17T20:18:18.626Z,16.60
2022-09-17T20:20:47.740Z,16.59
2022-09-17T20:23:14.228Z,16.58
2022-09-17T20:25:40.970Z,16.55
2022-09-17T20:28:07.731Z,16.58
2022-09-17T20:30:34.227Z,16.60
2022-09-17T20:33:00.670Z,16.62
2022-09-17T20:35:27.867Z,16.61
2022-09-17T20:40:41.135Z,16.56
2022-09-17T20:43:07.582Z,16.56
2022-09-17T20:45:34.837Z,16.55
2022-09-17T20:48:01.453Z,16.56
2022-09-17T20:50:27.902Z,16.55
2022-09-17T20:52:54.391Z,16.55
2022-09-17T20:55:21.472Z,16.55
2022-09-17T20:57:48.282Z,16.55
2022-09-17T21:00:20.449Z,16.55
2022-09-17T21:02:51.727Z,16.53
2022-09-17T21:05:19.712Z,16.55
2022-09-17T21:07:46.222Z,16.53
2022-09-17T21:10:13.419Z,16.52
2022-09-17T21:12:39.880Z,16.51
2022-09-17T21:15:10.969Z,16.50
2022-09-17T21:17:40.634Z,16.50
2022-09-17T21:20:07.634Z,16.49
2022-09-17T21:22:34.080Z,16.45
2022-09-17T21:25:01.375Z,16.43
2022-09-17T21:27:31.237Z,16.43
2022-09-17T21:29:57.935Z,16.41
2022-09-17T21:32:24.856Z,16.39
2022-09-17T21:34:52.770Z,16.38
2022-09-17T21:37:19.201Z,16.37
2022-09-17T21:39:45.646Z,16.36
2022-09-17T21:42:12.094Z,16.38
2022-09-17T21:44:40.025Z,16.40
2022-09-17T21:47:11.676Z,16.39
2022-09-17T21:49:40.034Z,16.39
2022-09-17T21:52:06.472Z,16.37
2022-09-17T21:54:37.409Z,16.36
2022-09-17T21:57:04.086Z,16.37
2022-09-17T21:59:30.584Z,16.37
2022-09-17T22:01:57.457Z,16.37
2022-09-17T22:04:25.697Z,16.38
2022-09-17T22:06:53.194Z,16.40
2022-09-17T22:09:25.113Z,16.39
2022-09-17T22:11:53.164Z,16.37
2022-09-17T22:14:22.478Z,16.35
2022-09-17T22:16:52.780Z,16.36
2022-09-17T22:19:20.651Z,16.36
2022-09-17T22:21:51.102Z,16.36
2022-09-17T22:24:20.929Z,16.33
2022-09-17T22:26:55.955Z,16.34
2022-09-17T22:29:24.089Z,16.35
2022-09-17T22:31:50.844Z,16.33
2022-09-17T22:34:21.849Z,16.31
2022-09-17T22:36:49.265Z,16.31
2022-09-17T22:39:16.228Z,16.30
2022-09-17T22:41:45.740Z,16.30
2022-09-17T22:44:37.767Z,16.27
2022-09-17T22:47:04.331Z,16.30
2022-09-17T22:49:30.784Z,16.27
2022-09-17T22:51:57.249Z,16.26
2022-09-17T22:54:26.814Z,16.26
2022-09-17T22:56:53.282Z,16.26
2022-09-17T22:59:21.075Z,16.27
2022-09-17T23:01:47.825Z,16.25
2022-09-17T23:04:14.362Z,16.26
2022-09-17T23:06:42.143Z,16.26
2022-09-17T23:09:09.218Z,16.25
2022-09-17T23:11:38.016Z,16.25
2022-09-17T23:14:12.646Z,16.26
2022-09-17T23:16:45.432Z,16.26
2022-09-17T23:19:12.997Z,16.25
2022-09-17T23:21:40.020Z,16.23
2022-09-17T23:24:17.593Z,16.23
2022-09-17T23:26:44.418Z,16.23
2022-09-17T23:29:10.858Z,16.24
2022-09-17T23:31:37.405Z,16.22
2022-09-17T23:34:06.291Z,16.22
2022-09-17T23:36:36.328Z,16.20
2022-09-17T23:39:04.795Z,16.21
2022-09-17T23:41:33.749Z,16.20
2022-09-17T23:44:05.317Z,16.18
2022-09-17T23:46:34.855Z,16.18
2022-09-17T23:49:03.792Z,16.18
2022-09-17T23:51:31.551Z,16.18
2022-09-17T23:54:00.106Z,16.19
2022-09-17T23:56:28.112Z,16.22
2022-09-17T23:58:56.423Z,16.25
